Terminal Aerodrome Forecast
Issued by NWS Spokane, WA

Home | Current Version | Previous Version | Text Only | Print | Product List | Glossary On
Versions: 1 2 3 4 5 6 7 8 9 10 11 12 13 14
000
FTUS46 KOTX 230537
TAFEAT
TAF
KEAT 230537Z 2306/2406 VRB05KT P6SM BKN100
     FM230900 34007KT P6SM VCSH SCT040 BKN070
     FM231200 30010KT P6SM SCT070 BKN100
     FM231900 30015G23KT P6SM SCT070 BKN120
     FM240400 15004KT P6SM -RA OVC040=

USA.gov is the U.S. government's official web portal to all federal, state and local government web resources and services.